Погода Олешевона 2 недели

Тверская область, Россия

24 мая-06 июня
  • 24мая
    Сегодня
    +10°
    +24°
    Практически безоблачно
    ВремяПогодаТемператураВлажностьДавлениеВетер, м/сВероятность осадков
    00:00Ясно и безоблачно+11°C65 %757 мм0.9 м/с2 %
    03:00Ясно и безоблачно+8°C70 %758 мм0.8 м/с2 %
    06:00Ясно и безоблачно+11°C70 %759 мм1.1 м/с2 %
    09:00Ясно и безоблачно+19°C50 %760 мм1.8 м/с2 %
    12:00Ясно и безоблачно+22°C34 %759 мм2.0 м/с2 %
    15:00Практически безоблачно+23°C32 %758 мм2.2 м/с2 %
    18:00Небольшая облачность+23°C36 %758 мм2.0 м/с2 %
    21:00Ясно и безоблачно+17°C54 %757 мм1.1 м/с2 %
  • 25мая
    Суббота
    +11°
    +24°
    Ясно и безоблачно
    ВремяПогодаТемператураВлажностьДавлениеВетер, м/сВероятность осадков
    00:00Ясно и безоблачно+13°C55 %757 мм1.5 м/с2 %
    03:00Ясно и безоблачно+10°C59 %757 мм1.5 м/с2 %
    06:00Ясно и безоблачно+12°C63 %757 мм1.7 м/с2 %
    09:00Ясно и безоблачно+19°C48 %757 мм2.5 м/с2 %
    12:00Ясно и безоблачно+22°C36 %756 мм2.9 м/с2 %
    15:00Ясно и безоблачно+23°C35 %755 мм3.0 м/с2 %
    18:00Ясно и безоблачно+24°C38 %754 мм2.4 м/с2 %
    21:00Ясно и безоблачно+18°C59 %753 мм1.0 м/с2 %
  • 26мая
    Воскресенье
    +8°
    +22°
    Облачно с прояснениями
    ВремяПогодаТемператураВлажностьДавлениеВетер, м/сВероятность осадков
    00:00Ясно и безоблачно+14°C66 %753 мм1.4 м/с2 %
    03:00Ясно и безоблачно+13°C73 %753 мм1.3 м/с3 %
    06:00Небольшая облачность+13°C80 %753 мм0.8 м/с11 %
    09:00Пасмурно, сплошная облачность+18°C79 %754 мм1.9 м/с32 %
    12:00Пасмурно, ливень+19°C67 %755 мм2.1 м/с52 %
    15:00Облачно с прояснениями+22°C47 %755 мм2.2 м/с40 %
    18:00Облачно с прояснениями+21°C35 %755 мм1.9 м/с20 %
    21:00Практически безоблачно+16°C44 %756 мм1.3 м/с3 %
  • 27мая
    Понедельник
    +10°
    +23°
    Небольшая облачность
    ВремяПогодаТемператураВлажностьДавлениеВетер, м/сВероятность осадков
    00:00Ясно и безоблачно+11°C59 %757 мм1.4 м/с2 %
    03:00Ясно и безоблачно+9°C71 %758 мм1.2 м/с2 %
    06:00Ясно и безоблачно+11°C71 %758 мм1.3 м/с2 %
    09:00Ясно и безоблачно+17°C50 %758 мм2.1 м/с2 %
    12:00Ясно и безоблачно+20°C41 %758 мм2.3 м/с2 %
    15:00Небольшая облачность+23°C37 %757 мм2.1 м/с2 %
    18:00Небольшая облачность+22°C39 %757 мм1.7 м/с2 %
    21:00Ясно и безоблачно+17°C60 %756 мм1.0 м/с2 %
  • 28мая
    Вторник
    +13°
    +27°
    Практически безоблачно
    ВремяПогодаТемператураВлажностьДавлениеВетер, м/сВероятность осадков
    00:00Ясно и безоблачно+13°C68 %756 мм1.2 м/с2 %
    03:00Ясно и безоблачно+11°C75 %756 мм1.3 м/с2 %
    06:00Ясно и безоблачно+13°C74 %756 мм1.2 м/с2 %
    09:00Ясно и безоблачно+20°C58 %756 мм1.6 м/с2 %
    12:00Ясно и безоблачно+24°C44 %756 мм2.2 м/с3 %
    15:00Практически безоблачно+26°C38 %755 мм1.7 м/с10 %
    18:00Практически безоблачно+25°C36 %753 мм1.2 м/с10 %
    21:00Ясно и безоблачно+19°C57 %753 мм0.3 м/с3 %
Мы используем cookies
Соглашаюсь